sensor_id;sensor_type;location;lat;lon;timestamp;pressure;altitude;pressure_sealevel;temperature
42119;BMP280;27783;42.782;23.274;2022-08-01T00:01:55;95388.84;;;23.48
42119;BMP280;27783;42.782;23.274;2022-08-01T00:04:21;95392.03;;;23.46
42119;BMP280;27783;42.782;23.274;2022-08-01T00:06:47;95384.88;;;23.43
42119;BMP280;27783;42.782;23.274;2022-08-01T00:09:16;95390.72;;;23.42
42119;BMP280;27783;42.782;23.274;2022-08-01T00:11:41;95398.03;;;23.41
42119;BMP280;27783;42.782;23.274;2022-08-01T00:14:07;95387.47;;;23.38
42119;BMP280;27783;42.782;23.274;2022-08-01T00:16:37;95397.28;;;23.41
42119;BMP280;27783;42.782;23.274;2022-08-01T00:19:04;95391.19;;;23.40
42119;BMP280;27783;42.782;23.274;2022-08-01T00:21:30;95388.50;;;23.40
42119;BMP280;27783;42.782;23.274;2022-08-01T00:23:57;95393.16;;;23.40
42119;BMP280;27783;42.782;23.274;2022-08-01T00:26:22;95390.91;;;23.38
42119;BMP280;27783;42.782;23.274;2022-08-01T00:28:47;95392.84;;;23.38
42119;BMP280;27783;42.782;23.274;2022-08-01T00:31:13;95375.25;;;23.37
42119;BMP280;27783;42.782;23.274;2022-08-01T00:33:39;95377.94;;;23.37
42119;BMP280;27783;42.782;23.274;2022-08-01T00:36:05;95374.94;;;23.35
42119;BMP280;27783;42.782;23.274;2022-08-01T00:38:30;95368.81;;;23.35
42119;BMP280;27783;42.782;23.274;2022-08-01T00:40:56;95374.19;;;23.35
42119;BMP280;27783;42.782;23.274;2022-08-01T00:43:22;95374.94;;;23.35
42119;BMP280;27783;42.782;23.274;2022-08-01T00:45:47;95372.00;;;23.33
42119;BMP280;27783;42.782;23.274;2022-08-01T00:48:14;95367.72;;;23.27
42119;BMP280;27783;42.782;23.274;2022-08-01T00:50:39;95367.78;;;23.18
42119;BMP280;27783;42.782;23.274;2022-08-01T00:53:07;95357.88;;;23.10
42119;BMP280;27783;42.782;23.274;2022-08-01T00:55:33;95365.56;;;23.03
42119;BMP280;27783;42.782;23.274;2022-08-01T00:58:00;95363.06;;;22.99
42119;BMP280;27783;42.782;23.274;2022-08-01T01:00:27;95358.16;;;22.98
42119;BMP280;27783;42.782;23.274;2022-08-01T01:02:53;95362.50;;;22.95
42119;BMP280;27783;42.782;23.274;2022-08-01T01:05:19;95370.28;;;22.93
42119;BMP280;27783;42.782;23.274;2022-08-01T01:13:11;95359.63;;;22.85
42119;BMP280;27783;42.782;23.274;2022-08-01T01:15:49;95361.47;;;22.79
42119;BMP280;27783;42.782;23.274;2022-08-01T01:18:38;95360.63;;;22.73
42119;BMP280;27783;42.782;23.274;2022-08-01T01:23:46;95345.44;;;22.70
42119;BMP280;27783;42.782;23.274;2022-08-01T01:29:13;95355.63;;;22.66
42119;BMP280;27783;42.782;23.274;2022-08-01T01:31:59;95353.41;;;22.65
42119;BMP280;27783;42.782;23.274;2022-08-01T01:34:43;95345.78;;;22.63
42119;BMP280;27783;42.782;23.274;2022-08-01T01:37:19;95350.72;;;22.65
42119;BMP280;27783;42.782;23.274;2022-08-01T01:39:49;95347.16;;;22.59
42119;BMP280;27783;42.782;23.274;2022-08-01T01:42:37;95352.72;;;22.55
42119;BMP280;27783;42.782;23.274;2022-08-01T01:45:05;95344.56;;;22.50
42119;BMP280;27783;42.782;23.274;2022-08-01T01:47:31;95340.19;;;22.53
42119;BMP280;27783;42.782;23.274;2022-08-01T01:50:00;95338.00;;;22.51
42119;BMP280;27783;42.782;23.274;2022-08-01T01:52:29;95340.69;;;22.51
42119;BMP280;27783;42.782;23.274;2022-08-01T01:54:56;95338.75;;;22.52
42119;BMP280;27783;42.782;23.274;2022-08-01T01:57:24;95341.69;;;22.54
42119;BMP280;27783;42.782;23.274;2022-08-01T01:59:51;95331.13;;;22.50
42119;BMP280;27783;42.782;23.274;2022-08-01T02:02:18;95326.50;;;22.51
42119;BMP280;27783;42.782;23.274;2022-08-01T02:04:46;95330.69;;;22.52
42119;BMP280;27783;42.782;23.274;2022-08-01T02:07:16;95330.53;;;22.46
42119;BMP280;27783;42.782;23.274;2022-08-01T02:09:44;95335.16;;;22.46
42119;BMP280;27783;42.782;23.274;2022-08-01T02:12:12;95333.69;;;22.45
42119;BMP280;27783;42.782;23.274;2022-08-01T02:14:38;95335.34;;;22.42
42119;BMP280;27783;42.782;23.274;2022-08-01T02:17:15;95337.75;;;22.40
42119;BMP280;27783;42.782;23.274;2022-08-01T02:19:42;95343.56;;;22.39
42119;BMP280;27783;42.782;23.274;2022-08-01T02:25:11;95343.03;;;22.35
42119;BMP280;27783;42.782;23.274;2022-08-01T02:30:22;95338.34;;;22.21
42119;BMP280;27783;42.782;23.274;2022-08-01T02:33:18;95336.28;;;22.17
42119;BMP280;27783;42.782;23.274;2022-08-01T02:35:56;95337.97;;;22.14
42119;BMP280;27783;42.782;23.274;2022-08-01T02:38:25;95343.50;;;22.11
42119;BMP280;27783;42.782;23.274;2022-08-01T02:40:54;95333.38;;;22.06
42119;BMP280;27783;42.782;23.274;2022-08-01T02:43:24;95336.25;;;22.03
42119;BMP280;27783;42.782;23.274;2022-08-01T02:45:58;95326.41;;;22.00
42119;BMP280;27783;42.782;23.274;2022-08-01T02:48:25;95330.19;;;21.93
42119;BMP280;27783;42.782;23.274;2022-08-01T02:50:57;95326.22;;;21.89
42119;BMP280;27783;42.782;23.274;2022-08-01T02:53:27;95336.38;;;21.85
42119;BMP280;27783;42.782;23.274;2022-08-01T02:56:05;95327.00;;;21.81
42119;BMP280;27783;42.782;23.274;2022-08-01T02:58:34;95340.56;;;21.77
42119;BMP280;27783;42.782;23.274;2022-08-01T03:01:04;95338.63;;;21.78
42119;BMP280;27783;42.782;23.274;2022-08-01T03:03:32;95339.22;;;21.82
42119;BMP280;27783;42.782;23.274;2022-08-01T03:05:59;95338.63;;;21.78
42119;BMP280;27783;42.782;23.274;2022-08-01T03:08:29;95328.31;;;21.76
42119;BMP280;27783;42.782;23.274;2022-08-01T03:11:15;95329.06;;;21.77
42119;BMP280;27783;42.782;23.274;2022-08-01T03:13:44;95326.72;;;21.70
42119;BMP280;27783;42.782;23.274;2022-08-01T03:16:12;95328.22;;;21.71
42119;BMP280;27783;42.782;23.274;2022-08-01T03:18:39;95333.31;;;21.69
42119;BMP280;27783;42.782;23.274;2022-08-01T03:21:07;95330.22;;;21.62
42119;BMP280;27783;42.782;23.274;2022-08-01T03:23:33;95324.38;;;21.63
42119;BMP280;27783;42.782;23.274;2022-08-01T03:26:03;95321.69;;;21.63
42119;BMP280;27783;42.782;23.274;2022-08-01T03:28:31;95321.16;;;21.59
42119;BMP280;27783;42.782;23.274;2022-08-01T03:31:01;95323.53;;;21.57
42119;BMP280;27783;42.782;23.274;2022-08-01T03:33:28;95327.97;;;21.60
42119;BMP280;27783;42.782;23.274;2022-08-01T03:35:58;95331.88;;;21.59
42119;BMP280;27783;42.782;23.274;2022-08-01T03:38:26;95326.03;;;21.61
42119;BMP280;27783;42.782;23.274;2022-08-01T03:40:59;95330.03;;;21.65
42119;BMP280;27783;42.782;23.274;2022-08-01T03:43:37;95335.41;;;21.65
42119;BMP280;27783;42.782;23.274;2022-08-01T03:46:17;95338.38;;;21.67
42119;BMP280;27783;42.782;23.274;2022-08-01T03:48:48;95340.63;;;21.69
42119;BMP280;27783;42.782;23.274;2022-08-01T03:51:31;95340.63;;;21.69
42119;BMP280;27783;42.782;23.274;2022-08-01T03:54:00;95350.88;;;21.70
42119;BMP280;27783;42.782;23.274;2022-08-01T03:56:27;95348.81;;;21.65
42119;BMP280;27783;42.782;23.274;2022-08-01T03:58:54;95348.53;;;21.63
42119;BMP280;27783;42.782;23.274;2022-08-01T04:01:20;95338.53;;;21.64
42119;BMP280;27783;42.782;23.274;2022-08-01T04:03:55;95344.06;;;21.60
42119;BMP280;27783;42.782;23.274;2022-08-01T04:06:21;95348.81;;;21.65
42119;BMP280;27783;42.782;23.274;2022-08-01T04:08:49;95351.25;;;21.54
42119;BMP280;27783;42.782;23.274;2022-08-01T04:11:26;95353.34;;;21.59
42119;BMP280;27783;42.782;23.274;2022-08-01T04:13:53;95350.50;;;21.54
42119;BMP280;27783;42.782;23.274;2022-08-01T04:16:22;95344.38;;;21.62
42119;BMP280;27783;42.782;23.274;2022-08-01T04:18:49;95353.72;;;21.67
42119;BMP280;27783;42.782;23.274;2022-08-01T04:21:18;95354.47;;;21.36
42119;BMP280;27783;42.782;23.274;2022-08-01T04:23:44;95362.47;;;21.44
42119;BMP280;27783;42.782;23.274;2022-08-01T04:26:27;95350.66;;;21.59
42119;BMP280;27783;42.782;23.274;2022-08-01T04:28:56;95346.91;;;21.66
42119;BMP280;27783;42.782;23.274;2022-08-01T04:31:25;95352.25;;;21.66
42119;BMP280;27783;42.782;23.274;2022-08-01T04:33:53;95345.06;;;21.71
42119;BMP280;27783;42.782;23.274;2022-08-01T04:36:23;95344.72;;;21.78
42119;BMP280;27783;42.782;23.274;2022-08-01T04:38:56;95345.88;;;21.86
42119;BMP280;27783;42.782;23.274;2022-08-01T04:41:25;95358.69;;;21.91
42119;BMP280;27783;42.782;23.274;2022-08-01T04:43:51;95357.34;;;21.95
42119;BMP280;27783;42.782;23.274;2022-08-01T04:46:17;95352.81;;;22.01
42119;BMP280;27783;42.782;23.274;2022-08-01T04:48:44;95353.09;;;22.03
42119;BMP280;27783;42.782;23.274;2022-08-01T04:51:17;95351.91;;;22.04
42119;BMP280;27783;42.782;23.274;2022-08-01T04:53:47;95352.16;;;22.06
42119;BMP280;27783;42.782;23.274;2022-08-01T04:56:14;95348.28;;;22.07
42119;BMP280;27783;42.782;23.274;2022-08-01T04:58:42;95351.38;;;22.14
42119;BMP280;27783;42.782;23.274;2022-08-01T05:01:08;95352.72;;;22.19
42119;BMP280;27783;42.782;23.274;2022-08-01T05:03:34;95346.00;;;22.14
42119;BMP280;27783;42.782;23.274;2022-08-01T05:06:01;95345.84;;;22.18
42119;BMP280;27783;42.782;23.274;2022-08-01T05:08:31;95336.06;;;22.29
42119;BMP280;27783;42.782;23.274;2022-08-01T05:10:58;95334.41;;;22.31
42119;BMP280;27783;42.782;23.274;2022-08-01T05:13:23;95342.09;;;22.38
42119;BMP280;27783;42.782;23.274;2022-08-01T05:15:49;95341.19;;;22.41
42119;BMP280;27783;42.782;23.274;2022-08-01T05:18:14;95339.34;;;22.47
42119;BMP280;27783;42.782;23.274;2022-08-01T05:20:40;95341.88;;;22.50
42119;BMP280;27783;42.782;23.274;2022-08-01T05:23:06;95341.69;;;22.54
42119;BMP280;27783;42.782;23.274;2022-08-01T05:25:32;95352.25;;;22.57
42119;BMP280;27783;42.782;23.274;2022-08-01T05:27:58;95350.91;;;22.61
42119;BMP280;27783;42.782;23.274;2022-08-01T05:30:23;95351.72;;;22.67
42119;BMP280;27783;42.782;23.274;2022-08-01T05:32:49;95348.38;;;22.72
42119;BMP280;27783;42.782;23.274;2022-08-01T05:35:14;95352.56;;;22.73
42119;BMP280;27783;42.782;23.274;2022-08-01T05:37:40;95345.06;;;22.77
42119;BMP280;27783;42.782;23.274;2022-08-01T05:40:05;95340.25;;;22.81
42119;BMP280;27783;42.782;23.274;2022-08-01T05:42:31;95346.47;;;22.87
42119;BMP280;27783;42.782;23.274;2022-08-01T05:44:56;95360.91;;;22.89
42119;BMP280;27783;42.782;23.274;2022-08-01T05:47:22;95351.47;;;22.93
42119;BMP280;27783;42.782;23.274;2022-08-01T05:49:47;95353.06;;;23.00
42119;BMP280;27783;42.782;23.274;2022-08-01T05:52:12;95355.81;;;23.05
42119;BMP280;27783;42.782;23.274;2022-08-01T05:54:38;95352.50;;;23.10
42119;BMP280;27783;42.782;23.274;2022-08-01T05:57:03;95352.31;;;23.13
42119;BMP280;27783;42.782;23.274;2022-08-01T05:59:29;95353.63;;;23.18
42119;BMP280;27783;42.782;23.274;2022-08-01T06:01:55;95348.34;;;23.23
42119;BMP280;27783;42.782;23.274;2022-08-01T06:04:21;95350.09;;;23.26
42119;BMP280;27783;42.782;23.274;2022-08-01T06:06:46;95352.88;;;23.31
42119;BMP280;27783;42.782;23.274;2022-08-01T06:09:12;95336.34;;;23.38
42119;BMP280;27783;42.782;23.274;2022-08-01T06:11:37;95346.19;;;23.41
42119;BMP280;27783;42.782;23.274;2022-08-01T06:14:02;95352.84;;;23.45
42119;BMP280;27783;42.782;23.274;2022-08-01T06:16:28;95346.34;;;23.52
42119;BMP280;27783;42.782;23.274;2022-08-01T06:18:53;95337.63;;;23.56
42119;BMP280;27783;42.782;23.274;2022-08-01T06:21:19;95342.81;;;23.60
42119;BMP280;27783;42.782;23.274;2022-08-01T06:23:44;95336.31;;;23.66
42119;BMP280;27783;42.782;23.274;2022-08-01T06:26:09;95339.25;;;23.68
42119;BMP280;27783;42.782;23.274;2022-08-01T06:28:35;95340.75;;;23.69
42119;BMP280;27783;42.782;23.274;2022-08-01T06:31:01;95337.50;;;23.65
42119;BMP280;27783;42.782;23.274;2022-08-01T06:33:26;95338.91;;;23.61
42119;BMP280;27783;42.782;23.274;2022-08-01T06:35:52;95339.25;;;23.68
42119;BMP280;27783;42.782;23.274;2022-08-01T06:38:17;95336.25;;;23.80
42119;BMP280;27783;42.782;23.274;2022-08-01T06:40:43;95328.56;;;23.88
42119;BMP280;27783;42.782;23.274;2022-08-01T06:43:08;95321.03;;;23.91
42119;BMP280;27783;42.782;23.274;2022-08-01T06:45:36;95323.78;;;23.97
42119;BMP280;27783;42.782;23.274;2022-08-01T06:48:01;95320.47;;;23.88
42119;BMP280;27783;42.782;23.274;2022-08-01T06:50:27;95315.84;;;23.88
42119;BMP280;27783;42.782;23.274;2022-08-01T06:52:52;95311.34;;;23.99
42119;BMP280;27783;42.782;23.274;2022-08-01T06:55:18;95311.41;;;24.05
42119;BMP280;27783;42.782;23.274;2022-08-01T06:57:49;95307.56;;;24.11
42119;BMP280;27783;42.782;23.274;2022-08-01T07:00:15;95297.31;;;24.15
42119;BMP280;27783;42.782;23.274;2022-08-01T07:02:44;95302.06;;;24.20
42119;BMP280;27783;42.782;23.274;2022-08-01T07:05:09;95293.44;;;24.16
42119;BMP280;27783;42.782;23.274;2022-08-01T07:07:35;95301.22;;;24.14
42119;BMP280;27783;42.782;23.274;2022-08-01T07:10:00;95295.84;;;24.14
42119;BMP280;27783;42.782;23.274;2022-08-01T07:12:25;95304.19;;;24.16
42119;BMP280;27783;42.782;23.274;2022-08-01T07:14:51;95297.47;;;24.25
42119;BMP280;27783;42.782;23.274;2022-08-01T07:17:16;95302.09;;;24.25
42119;BMP280;27783;42.782;23.274;2022-08-01T07:19:41;95309.44;;;24.24
42119;BMP280;27783;42.782;23.274;2022-08-01T07:22:07;95298.06;;;24.35
42119;BMP280;27783;42.782;23.274;2022-08-01T07:24:32;95297.91;;;24.43
42119;BMP280;27783;42.782;23.274;2022-08-01T07:26:58;95292.09;;;24.50
42119;BMP280;27783;42.782;23.274;2022-08-01T07:29:24;95294.59;;;24.54
42119;BMP280;27783;42.782;23.274;2022-08-01T07:31:50;95294.69;;;24.59
42119;BMP280;27783;42.782;23.274;2022-08-01T07:34:16;95286.44;;;24.68
42119;BMP280;27783;42.782;23.274;2022-08-01T07:36:41;95299.19;;;24.73
42119;BMP280;27783;42.782;23.274;2022-08-01T07:39:07;95300.69;;;24.73
42119;BMP280;27783;42.782;23.274;2022-08-01T07:41:32;95295.03;;;24.72
42119;BMP280;27783;42.782;23.274;2022-08-01T07:43:58;95294.31;;;24.71
42119;BMP280;27783;42.782;23.274;2022-08-01T07:46:23;95286.00;;;24.74
42119;BMP280;27783;42.782;23.274;2022-08-01T07:48:49;95290.69;;;24.79
42119;BMP280;27783;42.782;23.274;2022-08-01T07:51:14;95290.97;;;24.81
42119;BMP280;27783;42.782;23.274;2022-08-01T07:53:40;95284.66;;;24.89
42119;BMP280;27783;42.782;23.274;2022-08-01T07:56:05;95301.00;;;24.81
42119;BMP280;27783;42.782;23.274;2022-08-01T07:58:32;95297.56;;;24.80
42119;BMP280;27783;42.782;23.274;2022-08-01T08:00:57;95293.91;;;24.83
42119;BMP280;27783;42.782;23.274;2022-08-01T08:03:23;95289.59;;;24.91
42119;BMP280;27783;42.782;23.274;2022-08-01T08:05:48;95277.88;;;24.99
42119;BMP280;27783;42.782;23.274;2022-08-01T08:08:14;95287.00;;;25.02
42119;BMP280;27783;42.782;23.274;2022-08-01T08:10:40;95292.16;;;25.05
42119;BMP280;27783;42.782;23.274;2022-08-01T08:13:06;95297.38;;;25.14
42119;BMP280;27783;42.782;23.274;2022-08-01T08:15:31;95295.78;;;25.22
42119;BMP280;27783;42.782;23.274;2022-08-01T08:17:59;95287.94;;;25.23
42119;BMP280;27783;42.782;23.274;2022-08-01T08:20:25;95291.47;;;25.35
42119;BMP280;27783;42.782;23.274;2022-08-01T08:22:52;95288.56;;;25.43
42119;BMP280;27783;42.782;23.274;2022-08-01T08:25:18;95295.44;;;25.44
42119;BMP280;27783;42.782;23.274;2022-08-01T08:27:45;95292.78;;;25.50
42119;BMP280;27783;42.782;23.274;2022-08-01T08:30:11;95284.94;;;25.52
42119;BMP280;27783;42.782;23.274;2022-08-01T08:32:37;95280.50;;;25.49
42119;BMP280;27783;42.782;23.274;2022-08-01T08:35:04;95292.34;;;25.57
42119;BMP280;27783;42.782;23.274;2022-08-01T08:37:29;95273.25;;;25.65
42119;BMP280;27783;42.782;23.274;2022-08-01T08:39:55;95288.47;;;25.68
42119;BMP280;27783;42.782;23.274;2022-08-01T08:42:20;95277.94;;;25.70
42119;BMP280;27783;42.782;23.274;2022-08-01T08:44:46;95281.63;;;25.73
42119;BMP280;27783;42.782;23.274;2022-08-01T08:47:13;95274.59;;;25.80
42119;BMP280;27783;42.782;23.274;2022-08-01T08:49:39;95277.53;;;25.82
42119;BMP280;27783;42.782;23.274;2022-08-01T08:52:06;95290.34;;;25.87
42119;BMP280;27783;42.782;23.274;2022-08-01T08:54:32;95270.41;;;25.85
42119;BMP280;27783;42.782;23.274;2022-08-01T08:56:59;95273.91;;;25.91
42119;BMP280;27783;42.782;23.274;2022-08-01T08:59:25;95261.63;;;25.90
42119;BMP280;27783;42.782;23.274;2022-08-01T09:01:51;95260.66;;;25.92
42119;BMP280;27783;42.782;23.274;2022-08-01T09:04:17;95273.44;;;25.97
42119;BMP280;27783;42.782;23.274;2022-08-01T09:06:43;95269.03;;;26.05
42119;BMP280;27783;42.782;23.274;2022-08-01T09:09:09;95276.44;;;26.10
42119;BMP280;27783;42.782;23.274;2022-08-01T09:11:37;95261.69;;;26.11
42119;BMP280;27783;42.782;23.274;2022-08-01T09:16:32;95254.88;;;26.21
42119;BMP280;27783;42.782;23.274;2022-08-01T09:19:27;95263.97;;;26.23
42119;BMP280;27783;42.782;23.274;2022-08-01T09:22:01;95254.16;;;26.25
42119;BMP280;27783;42.782;23.274;2022-08-01T09:24:29;95267.94;;;26.33
42119;BMP280;27783;42.782;23.274;2022-08-01T09:26:55;95259.09;;;26.38
42119;BMP280;27783;42.782;23.274;2022-08-01T09:29:29;95256.38;;;26.32
42119;BMP280;27783;42.782;23.274;2022-08-01T09:31:56;95260.34;;;26.37
42119;BMP280;27783;42.782;23.274;2022-08-01T09:34:29;95245.88;;;26.40
42119;BMP280;27783;42.782;23.274;2022-08-01T09:36:58;95268.25;;;26.40
42119;BMP280;27783;42.782;23.274;2022-08-01T09:41:49;95254.00;;;26.56
42119;BMP280;27783;42.782;23.274;2022-08-01T09:44:16;95255.25;;;26.65
42119;BMP280;27783;42.782;23.274;2022-08-01T09:46:52;95256.22;;;26.68
42119;BMP280;27783;42.782;23.274;2022-08-01T09:49:32;95246.41;;;26.75
42119;BMP280;27783;42.782;23.274;2022-08-01T09:52:10;95265.09;;;26.84
42119;BMP280;27783;42.782;23.274;2022-08-01T09:54:35;95263.63;;;26.94
42119;BMP280;27783;42.782;23.274;2022-08-01T09:57:12;95258.03;;;27.08
42119;BMP280;27783;42.782;23.274;2022-08-01T09:59:40;95250.66;;;27.19
42119;BMP280;27783;42.782;23.274;2022-08-01T10:02:09;95251.38;;;27.30
42119;BMP280;27783;42.782;23.274;2022-08-01T10:04:35;95248.91;;;27.32
42119;BMP280;27783;42.782;23.274;2022-08-01T10:07:06;95244.22;;;27.38
42119;BMP280;27783;42.782;23.274;2022-08-01T10:09:34;95243.25;;;27.41
42119;BMP280;27783;42.782;23.274;2022-08-01T10:12:01;95243.00;;;27.34
42119;BMP280;27783;42.782;23.274;2022-08-01T10:14:28;95239.53;;;27.44
42119;BMP280;27783;42.782;23.274;2022-08-01T10:16:55;95237.31;;;27.48
42119;BMP280;27783;42.782;23.274;2022-08-01T10:19:24;95243.47;;;27.54
42119;BMP280;27783;42.782;23.274;2022-08-01T10:21:54;95235.59;;;27.61
42119;BMP280;27783;42.782;23.274;2022-08-01T10:24:20;95241.72;;;27.72
42119;BMP280;27783;42.782;23.274;2022-08-01T10:26:59;95224.00;;;27.71
42119;BMP280;27783;42.782;23.274;2022-08-01T10:29:33;95226.91;;;27.84
42119;BMP280;27783;42.782;23.274;2022-08-01T10:31:59;95227.88;;;27.92
42119;BMP280;27783;42.782;23.274;2022-08-01T10:34:26;95220.94;;;27.96
42119;BMP280;27783;42.782;23.274;2022-08-01T10:36:52;95227.09;;;28.02
42119;BMP280;27783;42.782;23.274;2022-08-01T10:39:46;95222.13;;;28.06
42119;BMP280;27783;42.782;23.274;2022-08-01T10:42:12;95227.88;;;27.92
42119;BMP280;27783;42.782;23.274;2022-08-01T10:44:38;95223.44;;;27.89
42119;BMP280;27783;42.782;23.274;2022-08-01T10:47:09;95221.97;;;27.82
42119;BMP280;27783;42.782;23.274;2022-08-01T10:52:18;95216.81;;;27.79
42119;BMP280;27783;42.782;23.274;2022-08-01T10:54:44;95215.59;;;27.80
42119;BMP280;27783;42.782;23.274;2022-08-01T10:57:10;95219.53;;;27.79
42119;BMP280;27783;42.782;23.274;2022-08-01T10:59:48;95216.09;;;27.78
42119;BMP280;27783;42.782;23.274;2022-08-01T11:02:25;95215.34;;;27.78
42119;BMP280;27783;42.782;23.274;2022-08-01T11:05:01;95210.44;;;27.76
42119;BMP280;27783;42.782;23.274;2022-08-01T11:07:51;95213.84;;;27.88
42119;BMP280;27783;42.782;23.274;2022-08-01T11:10:39;95197.06;;;27.89
42119;BMP280;27783;42.782;23.274;2022-08-01T11:13:05;95207.44;;;27.85
42119;BMP280;27783;42.782;23.274;2022-08-01T11:15:36;95209.41;;;27.90
42119;BMP280;27783;42.782;23.274;2022-08-01T11:18:04;95197.81;;;27.95
42119;BMP280;27783;42.782;23.274;2022-08-01T11:21:02;95196.78;;;28.03
42119;BMP280;27783;42.782;23.274;2022-08-01T11:23:28;95201.94;;;28.07
42119;BMP280;27783;42.782;23.274;2022-08-01T11:28:22;95189.88;;;28.02
42119;BMP280;27783;42.782;23.274;2022-08-01T11:30:52;95193.34;;;27.97
42119;BMP280;27783;42.782;23.274;2022-08-01T11:41:25;95187.84;;;28.19
42119;BMP280;27783;42.782;23.274;2022-08-01T11:43:58;95188.03;;;28.31
42119;BMP280;27783;42.782;23.274;2022-08-01T11:46:49;95193.41;;;28.37
42119;BMP280;27783;42.782;23.274;2022-08-01T11:52:06;95184.47;;;28.47
42119;BMP280;27783;42.782;23.274;2022-08-01T11:54:34;95170.66;;;28.45
42119;BMP280;27783;42.782;23.274;2022-08-01T11:57:07;95185.50;;;28.44
42119;BMP280;27783;42.782;23.274;2022-08-01T11:59:38;95182.25;;;28.51
42119;BMP280;27783;42.782;23.274;2022-08-01T12:02:14;95173.03;;;28.59
42119;BMP280;27783;42.782;23.274;2022-08-01T12:04:47;95170.59;;;28.56
42119;BMP280;27783;42.782;23.274;2022-08-01T12:07:16;95176.75;;;28.56
42119;BMP280;27783;42.782;23.274;2022-08-01T12:09:42;95181.97;;;28.54
42119;BMP280;27783;42.782;23.274;2022-08-01T12:12:08;95171.81;;;28.60
42119;BMP280;27783;42.782;23.274;2022-08-01T12:14:34;95169.59;;;28.59
42119;BMP280;27783;42.782;23.274;2022-08-01T12:16:59;95165.38;;;28.63
42119;BMP280;27783;42.782;23.274;2022-08-01T12:19:25;95169.31;;;28.67
42119;BMP280;27783;42.782;23.274;2022-08-01T12:24:36;95170.66;;;28.84
42119;BMP280;27783;42.782;23.274;2022-08-01T12:27:03;95173.13;;;28.82
42119;BMP280;27783;42.782;23.274;2022-08-01T12:32:01;95163.41;;;29.21
42119;BMP280;27783;42.782;23.274;2022-08-01T12:34:30;95170.97;;;29.33
42119;BMP280;27783;42.782;23.274;2022-08-01T12:37:00;95167.19;;;29.41
42119;BMP280;27783;42.782;23.274;2022-08-01T12:39:32;95160.78;;;29.62
42119;BMP280;27783;42.782;23.274;2022-08-01T12:41:58;95157.91;;;29.78
42119;BMP280;27783;42.782;23.274;2022-08-01T12:44:26;95160.69;;;29.91
42119;BMP280;27783;42.782;23.274;2022-08-01T12:46:52;95154.78;;;30.28
42119;BMP280;27783;42.782;23.274;2022-08-01T12:49:18;95159.19;;;30.79
42119;BMP280;27783;42.782;23.274;2022-08-01T12:51:44;95159.06;;;31.71
42119;BMP280;27783;42.782;23.274;2022-08-01T12:54:09;95159.03;;;32.22
42119;BMP280;27783;42.782;23.274;2022-08-01T12:56:35;95153.63;;;32.54
42119;BMP280;27783;42.782;23.274;2022-08-01T12:59:01;95148.75;;;32.93
42119;BMP280;27783;42.782;23.274;2022-08-01T13:01:27;95115.50;;;33.76
42119;BMP280;27783;42.782;23.274;2022-08-01T13:04:00;95137.22;;;34.15
42119;BMP280;27783;42.782;23.274;2022-08-01T13:06:28;95136.19;;;34.89
42119;BMP280;27783;42.782;23.274;2022-08-01T13:08:54;95137.31;;;35.45
42119;BMP280;27783;42.782;23.274;2022-08-01T13:11:20;95135.00;;;36.09
42119;BMP280;27783;42.782;23.274;2022-08-01T13:13:48;95137.88;;;35.36
42119;BMP280;27783;42.782;23.274;2022-08-01T13:16:16;95136.56;;;35.08
42119;BMP280;27783;42.782;23.274;2022-08-01T13:18:48;95126.47;;;35.83
42119;BMP280;27783;42.782;23.274;2022-08-01T13:21:16;95134.06;;;36.21
42119;BMP280;27783;42.782;23.274;2022-08-01T13:24:04;95132.84;;;35.93
42119;BMP280;27783;42.782;23.274;2022-08-01T13:26:49;95125.66;;;35.22
42119;BMP280;27783;42.782;23.274;2022-08-01T13:29:20;95124.69;;;35.78
42119;BMP280;27783;42.782;23.274;2022-08-01T13:31:47;95130.09;;;36.07
42119;BMP280;27783;42.782;23.274;2022-08-01T13:34:12;95127.38;;;36.38
42119;BMP280;27783;42.782;23.274;2022-08-01T13:36:39;95123.25;;;36.61
42119;BMP280;27783;42.782;23.274;2022-08-01T13:39:05;95119.81;;;36.15
42119;BMP280;27783;42.782;23.274;2022-08-01T13:41:50;95115.94;;;35.65
42119;BMP280;27783;42.782;23.274;2022-08-01T13:44:15;95125.06;;;35.09
42119;BMP280;27783;42.782;23.274;2022-08-01T13:46:42;95126.06;;;34.55
42119;BMP280;27783;42.782;23.274;2022-08-01T13:49:09;95117.38;;;34.86
42119;BMP280;27783;42.782;23.274;2022-08-01T13:51:36;95107.88;;;35.09
42119;BMP280;27783;42.782;23.274;2022-08-01T13:54:02;95113.28;;;35.89
42119;BMP280;27783;42.782;23.274;2022-08-01T13:56:27;95106.78;;;36.61
42119;BMP280;27783;42.782;23.274;2022-08-01T13:58:54;95114.84;;;37.14
42119;BMP280;27783;42.782;23.274;2022-08-01T14:01:19;95110.50;;;37.52
42119;BMP280;27783;42.782;23.274;2022-08-01T14:03:45;95112.09;;;37.78
42119;BMP280;27783;42.782;23.274;2022-08-01T14:06:11;95112.91;;;37.88
42119;BMP280;27783;42.782;23.274;2022-08-01T14:08:37;95101.34;;;37.89
42119;BMP280;27783;42.782;23.274;2022-08-01T14:11:02;95093.50;;;37.86
42119;BMP280;27783;42.782;23.274;2022-08-01T14:13:28;95100.06;;;37.10
42119;BMP280;27783;42.782;23.274;2022-08-01T14:15:54;95103.72;;;36.81
42119;BMP280;27783;42.782;23.274;2022-08-01T14:18:19;95100.44;;;37.30
42119;BMP280;27783;42.782;23.274;2022-08-01T14:20:45;95101.25;;;37.80
42119;BMP280;27783;42.782;23.274;2022-08-01T14:23:10;95089.19;;;38.25
42119;BMP280;27783;42.782;23.274;2022-08-01T14:25:37;95096.56;;;38.65
42119;BMP280;27783;42.782;23.274;2022-08-01T14:28:03;95098.34;;;38.79
42119;BMP280;27783;42.782;23.274;2022-08-01T14:30:29;95105.50;;;38.40
42119;BMP280;27783;42.782;23.274;2022-08-01T14:32:54;95102.97;;;37.36
42119;BMP280;27783;42.782;23.274;2022-08-01T14:35:20;95105.13;;;36.58
42119;BMP280;27783;42.782;23.274;2022-08-01T14:37:45;95118.03;;;36.03
42119;BMP280;27783;42.782;23.274;2022-08-01T14:40:10;95106.03;;;36.22
42119;BMP280;27783;42.782;23.274;2022-08-01T14:42:37;95101.84;;;35.61
42119;BMP280;27783;42.782;23.274;2022-08-01T14:45:05;95107.16;;;34.86
42119;BMP280;27783;42.782;23.274;2022-08-01T14:47:35;95106.94;;;34.14